Hlavní strana
METAR-TAF:

METAR-TAF

Letiště :

Farmville Regional Airport

Farmville, Virginie, Spojené státy americké

zeměpisná šířka: 37-21N, zeměpisná délka: 078-26W, výška: 125 m

Aktuální stav počasí

Zpráva byla vytvořena před 10 minutami, v 22:35 UTC
Jihozápadní vítr 7 kt
Teplota 13°C
Vlhkost vzduchu 67%
Tlak 998 hPa
Viditelnost: 16.1 km
Polojasno ve výšce 5500 ft
Zataženo ve výšce 6500 ft

METAR: KFVX 302235Z AUTO 23007KT 10SM SCT055 OVC065 13/07 A2948 RMK AO2 T01260065

Čas: 17:45 (22:45 UTC)


TAF: chybějící

Stav a předpovědi počasí z více než 4 000 letišť (zprávy METAR a TAF).

Červené a žluté tečky na mapě představují dostupné meteorologické stanice.

Když kurzor umístíte na tečku, zobrazí se název stanice.

Pak kliknutím zobrazíte stav a předpověď počasí.

Chcete-li změnit mapu, kliknutím na zelené tlačítko se znaménkem +mapu přiblížíte, kliknutím na zelené tlačítko se znaménkem – mapu oddálíte a kliknutím na zelené šipky přejdete na sousední mapy.


METAR-TAF: